الصفحة الرئيسية
METAR-TAF:

METAR-TAF

مطار :

Rivas, نيكاراغوا

دائرة عرض: 11-25N, خط طول: 085-50W, ارتفاع: 53 متر

مراقبة الطقس الحالي

تاريخ ووقت الإصدار 11ساعات و 14 دقيقة قبل الساعة 23:00UTC
رياح هادئة
درجة الحرارة 38°درجة مئوية
الرطوبة 31%
ضغط 1008 hPa
الرؤية 10 كم أو أكثر
الغيوم لا تقل 1500 م ولا وجود لمزنة ركامية السحاب الأسود

METAR: MNRS 242300Z 00000KT CAVOK 38/18 Q1008

زمن: 04:14 (10:14 UTC)


TAF: مفقودة

أرصاد الطقس والتوقعات من أكثر من 4000 مطار (تقارير الطقس للمطار METAR والتنبؤ بالطقس بالمطارTAF).

المحطات المتاحة هي النقط الصفراء والحمراء على الخريطة.

حرك المؤشر فوق النقطة لمعرفة اسم المحطة.

ثم انقر لمعرفة أرصاد وتوقعات الطقس.

لتغيير الخارطة: اضغط على الأزرار الخضراء مع رمز الصليب الأسود للتكبير. على الزر الأخضر مع شرطة للتصغير، أو على الأسهم الخضراء للخرائط المجاورة.


METAR-TAF: